Time;durP1;ratioP1;P1;durP2;ratioP2;P2;SDS_P1;SDS_P2;PMS_P1;PMS_P2;Temp;Humidity;BMP_temperature;BMP_pressure;BME280_temperature;BME280_humidity;BME280_pressure;Samples;Min_cycle;Max_cycle;Signal;HPM_P1;HPM_P2
2023/01/23 00:01:26;;;;;;;8.82;4.40;;;;;;;;;;12838659;19;20576;-70
2023/01/23 00:05:44;;;;;;;9.05;5.03;;;;;;;;;;12837213;19;20510;-68
2023/01/23 00:10:02;;;;;;;;;;;;;;;;;;12836987;19;20649;-69
2023/01/23 00:14:20;;;;;;;10.52;6.53;;;;;;;;;;12837269;19;20397;-69
2023/01/23 00:18:37;;;;;;;17.77;7.72;;;;;;;;;;12837387;19;20384;-68
2023/01/23 00:22:55;;;;;;;11.20;5.93;;;;;;;;;;12835978;19;20362;-70
2023/01/23 00:27:12;;;;;;;20.80;9.70;;;;;;;;;;12835230;19;20481;-67
2023/01/23 00:31:35;;;;;;;23.02;9.20;;;;;;;;;;12836806;19;20762;-69
2023/01/23 00:35:54;;;;;;;23.55;8.93;;;;;;;;;;12834953;19;20308;-68
2023/01/23 00:40:12;;;;;;;16.02;8.50;;;;;;;;;;12835440;19;20456;-70
2023/01/23 00:44:29;;;;;;;12.52;7.90;;;;;;;;;;12836849;19;20373;-69
2023/01/23 00:48:47;;;;;;;14.70;7.30;;;;;;;;;;12846904;19;20379;-67
2023/01/23 00:53:05;;;;;;;10.73;6.75;;;;;;;;;;12845780;19;20063;-69
2023/01/23 00:57:23;;;;;;;9.52;5.75;;;;;;;;;;12847671;19;20466;-68
2023/01/23 01:01:40;;;;;;;11.65;6.32;;;;;;;;;;12847506;19;20382;-68
2023/01/23 01:05:59;;;;;;;48.05;22.83;;;;;;;;;;12846000;19;20495;-69
2023/01/23 01:10:17;;;;;;;22.83;13.32;;;;;;;;;;12845917;19;20591;-68
2023/01/23 01:14:35;;;;;;;8.07;5.18;;;;;;;;;;12847503;19;20058;-68
2023/01/23 01:18:53;;;;;;;10.52;5.47;;;;;;;;;;12847747;19;20377;-68
2023/01/23 01:23:11;;;;;;;23.17;9.60;;;;;;;;;;12846257;19;20337;-70
2023/01/23 01:27:29;;;;;;;28.02;10.05;;;;;;;;;;12845946;19;20044;-69
2023/01/23 01:31:46;;;;;;;21.63;9.52;;;;;;;;;;12847007;19;20464;-68
2023/01/23 01:36:16;;;;;;;13.20;6.85;;;;;;;;;;12845700;19;20364;-68
2023/01/23 01:40:36;;;;;;;10.00;5.22;;;;;;;;;;12844553;19;20351;-70
2023/01/23 01:44:58;;;;;;;8.32;4.90;;;;;;;;;;12843690;19;20443;-68
2023/01/23 01:49:29;;;;;;;9.63;4.72;;;;;;;;;;12843799;19;20019;-69
2023/01/23 01:53:53;;;;;;;7.25;5.70;;;;;;;;;;12843289;19;20498;-69
2023/01/23 01:58:12;;;;;;;12.32;7.95;;;;;;;;;;12841080;19;20465;-68
2023/01/23 02:02:42;;;;;;;9.18;5.10;;;;;;;;;;12842969;19;20460;-69
2023/01/23 02:07:06;;;;;;;11.73;6.15;;;;;;;;;;12844111;19;20468;-69
2023/01/23 02:11:24;;;;;;;11.38;5.53;;;;;;;;;;12843736;19;20514;-68
2023/01/23 02:15:41;;;;;;;9.57;5.75;;;;;;;;;;12842583;19;20712;-69
2023/01/23 02:20:17;;;;;;;10.90;6.65;;;;;;;;;;12844530;19;20475;-68
2023/01/23 02:24:43;;;;;;;8.05;4.50;;;;;;;;;;12843969;19;20600;-69
2023/01/23 02:29:01;;;;;;;12.20;6.22;;;;;;;;;;12842180;19;20375;-69
2023/01/23 02:33:18;;;;;;;14.70;8.25;;;;;;;;;;12842997;19;20086;-68
2023/01/23 02:37:39;;;;;;;14.30;7.70;;;;;;;;;;12842626;19;20489;-69
2023/01/23 02:41:58;;;;;;;17.98;8.45;;;;;;;;;;12841870;19;20366;-68
2023/01/23 02:46:19;;;;;;;9.35;5.28;;;;;;;;;;12839851;19;20480;-68
2023/01/23 02:50:37;;;;;;;11.38;5.93;;;;;;;;;;12842836;19;20482;-68
2023/01/23 02:54:54;;;;;;;5.75;3.92;;;;;;;;;;12842527;19;20489;-67
2023/01/23 03:03:50;;;;;;;9.95;5.57;;;;;;;;;;12842022;19;20781;-69
2023/01/23 03:08:08;;;;;;;10.57;5.68;;;;;;;;;;12839303;19;20491;-69
2023/01/23 03:12:26;;;;;;;12.23;7.07;;;;;;;;;;12839243;19;20322;-69
2023/01/23 03:16:50;;;;;;;8.35;5.03;;;;;;;;;;12840767;19;20085;-69
2023/01/23 03:21:07;;;;;;;8.15;5.00;;;;;;;;;;12838658;19;20497;-67
2023/01/23 03:25:25;;;;;;;5.95;3.80;;;;;;;;;;12839324;19;20433;-69
2023/01/23 03:34:21;;;;;;;8.50;4.70;;;;;;;;;;12839796;19;20318;-68
2023/01/23 03:41:23;;;;;;;34.35;12.18;;;;;;;;;;12839409;19;20468;-68
2023/01/23 03:43:16;;;;;;;30.35;12.85;;;;;;;;;;12841838;19;20299;-68
2023/01/23 03:47:35;;;;;;;22.13;9.00;;;;;;;;;;12840127;19;20484;-68
2023/01/23 03:51:52;;;;;;;24.48;9.30;;;;;;;;;;12837489;19;20023;-69
2023/01/23 03:56:10;;;;;;;10.23;5.40;;;;;;;;;;12837931;19;20369;-70
2023/01/23 04:00:27;;;;;;;8.23;4.65;;;;;;;;;;12839018;19;20460;-69
2023/01/23 04:04:45;;;;;;;12.47;5.63;;;;;;;;;;12838692;19;20485;-69
2023/01/23 04:09:04;;;;;;;9.82;5.47;;;;;;;;;;12835733;19;20448;-69
2023/01/23 04:13:21;;;;;;;7.53;4.47;;;;;;;;;;12837584;19;20355;-69
2023/01/23 04:17:39;;;;;;;4.97;3.60;;;;;;;;;;12837620;19;20372;-69
2023/01/23 04:21:59;;;;;;;7.10;4.53;;;;;;;;;;12835153;19;20014;-68
2023/01/23 04:26:16;;;;;;;9.45;4.85;;;;;;;;;;12836097;19;20517;-69
2023/01/23 04:30:34;;;;;;;8.75;4.78;;;;;;;;;;12332547;19;10000327;-68
2023/01/23 04:34:51;;;;;;;6.85;4.20;;;;;;;;;;12838359;19;20388;-69
2023/01/23 04:39:09;;;;;;;10.25;4.65;;;;;;;;;;12835141;19;20358;-71
2023/01/23 04:43:27;;;;;;;8.30;4.53;;;;;;;;;;12836702;19;20110;-68
2023/01/23 04:47:44;;;;;;;8.68;4.68;;;;;;;;;;12837325;19;20616;-68
2023/01/23 04:52:02;;;;;;;7.60;4.75;;;;;;;;;;12834538;19;20040;-68
2023/01/23 04:56:20;;;;;;;7.93;5.28;;;;;;;;;;12834135;19;20456;-69
2023/01/23 05:00:37;;;;;;;8.10;4.70;;;;;;;;;;12835451;19;20460;-68
2023/01/23 05:04:55;;;;;;;8.32;4.72;;;;;;;;;;12836299;19;20379;-68
2023/01/23 05:09:13;;;;;;;11.77;5.25;;;;;;;;;;12834642;19;20300;-70
2023/01/23 05:13:30;;;;;;;10.77;5.00;;;;;;;;;;12835777;19;20452;-71
2023/01/23 05:17:48;;;;;;;12.47;5.00;;;;;;;;;;12835717;19;20356;-69
2023/01/23 05:22:06;;;;;;;7.50;3.88;;;;;;;;;;12834902;19;20781;-68
2023/01/23 05:26:24;;;;;;;12.90;5.10;;;;;;;;;;12833664;19;20018;-68
2023/01/23 05:30:41;;;;;;;6.60;3.97;;;;;;;;;;12834967;19;20744;-68
2023/01/23 05:34:59;;;;;;;6.20;4.30;;;;;;;;;;12847486;19;20384;-68
2023/01/23 05:39:16;;;;;;;6.82;3.95;;;;;;;;;;12845872;19;20426;-69
2023/01/23 05:43:34;;;;;;;5.50;3.30;;;;;;;;;;12847891;19;20014;-69
2023/01/23 05:47:54;;;;;;;6.78;3.72;;;;;;;;;;12846130;19;20468;-70
2023/01/23 05:52:11;;;;;;;16.05;5.80;;;;;;;;;;12845199;19;20379;-70
2023/01/23 05:56:29;;;;;;;23.58;8.50;;;;;;;;;;12842809;19;20118;-69
2023/01/23 06:00:47;;;;;;;10.27;4.55;;;;;;;;;;12846164;19;20504;-68
2023/01/23 06:05:05;;;;;;;17.52;6.38;;;;;;;;;;12844527;19;20433;-68
2023/01/23 06:09:23;;;;;;;9.57;4.60;;;;;;;;;;12842294;19;20461;-69
2023/01/23 06:13:40;;;;;;;7.10;4.30;;;;;;;;;;12845462;19;20492;-68
2023/01/23 06:17:59;;;;;;;7.28;4.00;;;;;;;;;;12845187;19;20798;-68
2023/01/23 06:22:17;;;;;;;6.57;4.32;;;;;;;;;;12844435;19;20331;-69
2023/01/23 06:26:34;;;;;;;7.43;4.72;;;;;;;;;;12843736;19;20414;-69
2023/01/23 06:30:53;;;;;;;6.30;3.90;;;;;;;;;;12842155;19;20360;-68
2023/01/23 06:35:11;;;;;;;7.43;4.38;;;;;;;;;;12840684;19;20387;-70
2023/01/23 06:39:33;;;;;;;8.57;5.33;;;;;;;;;;12842533;19;20376;-69
2023/01/23 06:43:52;;;;;;;27.48;18.25;;;;;;;;;;12842144;19;21093;-68
2023/01/23 06:48:10;;;;;;;12.93;8.50;;;;;;;;;;12841523;19;20362;-69
2023/01/23 06:52:28;;;;;;;9.23;6.53;;;;;;;;;;12843827;19;20460;-71
2023/01/23 06:56:48;;;;;;;8.43;5.38;;;;;;;;;;12840709;19;20375;-70
2023/01/23 07:01:14;;;;;;;7.95;4.50;;;;;;;;;;12841459;19;20336;-70
2023/01/23 07:05:38;;;;;;;13.63;6.97;;;;;;;;;;12839244;19;20469;-68
2023/01/23 07:09:55;;;;;;;10.50;5.72;;;;;;;;;;12841105;19;20464;-68
2023/01/23 07:14:13;;;;;;;10.15;6.65;;;;;;;;;;12841410;19;20489;-68
2023/01/23 07:18:32;;;;;;;30.98;13.45;;;;;;;;;;12841387;19;20480;-70
2023/01/23 07:22:49;;;;;;;27.67;11.15;;;;;;;;;;12840409;19;20363;-70
2023/01/23 07:27:07;;;;;;;9.65;5.30;;;;;;;;;;12840754;19;20365;-69
2023/01/23 07:31:25;;;;;;;6.65;4.65;;;;;;;;;;12840081;19;20010;-70
2023/01/23 07:35:42;;;;;;;7.47;4.82;;;;;;;;;;12838648;19;20329;-68
2023/01/23 07:40:00;;;;;;;11.43;4.90;;;;;;;;;;12838363;19;20484;-68
2023/01/23 07:44:20;;;;;;;8.27;4.97;;;;;;;;;;12839830;19;20472;-68
2023/01/23 07:48:38;;;;;;;8.80;6.43;;;;;;;;;;12837843;19;20509;-69
2023/01/23 07:52:55;;;;;;;24.83;16.00;;;;;;;;;;12840174;19;20492;-68
2023/01/23 07:57:12;;;;;;;53.70;17.15;;;;;;;;;;12835690;19;20437;-69
2023/01/23 08:01:30;;;;;;;42.70;14.10;;;;;;;;;;12839784;19;20345;-70
2023/01/23 08:05:48;;;;;;;24.48;10.00;;;;;;;;;;12836126;19;20336;-69
2023/01/23 08:10:07;;;;;;;15.75;9.10;;;;;;;;;;12837855;19;20422;-68
2023/01/23 08:14:25;;;;;;;17.20;9.00;;;;;;;;;;12835688;19;20351;-70
2023/01/23 08:18:42;;;;;;;55.67;15.20;;;;;;;;;;12838927;19;20461;-68
2023/01/23 08:23:01;;;;;;;25.13;8.05;;;;;;;;;;12836485;19;20300;-69
2023/01/23 08:27:18;;;;;;;13.02;5.95;;;;;;;;;;12837446;19;20010;-68
2023/01/23 08:31:37;;;;;;;20.13;7.45;;;;;;;;;;12836872;19;20102;-69
2023/01/23 08:35:57;;;;;;;22.90;8.00;;;;;;;;;;12835841;19;20394;-68
2023/01/23 08:40:15;;;;;;;29.88;11.52;;;;;;;;;;12834734;19;20433;-69
2023/01/23 08:44:33;;;;;;;34.80;12.45;;;;;;;;;;12836572;19;20048;-69
2023/01/23 08:48:51;;;;;;;22.45;9.77;;;;;;;;;;12837160;19;20704;-69
2023/01/23 08:53:08;;;;;;;6.97;4.77;;;;;;;;;;12833348;19;20022;-68
2023/01/23 08:57:26;;;;;;;18.00;9.50;;;;;;;;;;12835811;19;20086;-71
2023/01/23 09:01:45;;;;;;;9.13;5.63;;;;;;;;;;12836319;19;20390;-70
2023/01/23 09:06:02;;;;;;;11.43;6.78;;;;;;;;;;12837520;19;20024;-70
2023/01/23 09:10:20;;;;;;;10.23;5.28;;;;;;;;;;12848454;19;20306;-68
2023/01/23 09:14:39;;;;;;;6.25;4.45;;;;;;;;;;12847575;19;20362;-70
2023/01/23 09:18:56;;;;;;;6.15;4.57;;;;;;;;;;12848103;19;20433;-68
2023/01/23 09:23:14;;;;;;;8.23;5.80;;;;;;;;;;12847396;19;20456;-70
2023/01/23 09:27:32;;;;;;;6.97;3.75;;;;;;;;;;12846938;19;20358;-69
2023/01/23 09:31:49;;;;;;;4.78;3.90;;;;;;;;;;12847609;19;20460;-69
2023/01/23 09:36:08;;;;;;;7.25;4.65;;;;;;;;;;12846001;19;20468;-68
2023/01/23 09:40:57;;;;;;;9.25;5.63;;;;;;;;;;12846839;19;20670;-68
2023/01/23 09:45:20;;;;;;;6.53;3.97;;;;;;;;;;12843001;19;20369;-70
2023/01/23 09:49:56;;;;;;;7.45;4.70;;;;;;;;;;12844147;19;20367;-70
2023/01/23 09:54:29;;;;;;;5.88;4.32;;;;;;;;;;12843803;19;20476;-70
2023/01/23 09:58:56;;;;;;;8.50;4.60;;;;;;;;;;12845878;19;20449;-69
2023/01/23 10:03:15;;;;;;;12.82;6.70;;;;;;;;;;12844678;19;20464;-69
2023/01/23 10:08:16;;;;;;;44.92;13.50;;;;;;;;;;12843208;19;20477;-70
2023/01/23 10:13:34;;;;;;;36.08;11.48;;;;;;;;;;12843692;19;20425;-69
2023/01/23 10:18:24;;;;;;;41.97;10.05;;;;;;;;;;12843299;19;20519;-70
2023/01/23 10:23:10;;;;;;;38.30;22.83;;;;;;;;;;12842622;19;20516;-69
2023/01/23 10:27:37;;;;;;;33.60;10.45;;;;;;;;;;12843143;19;20728;-70
2023/01/23 10:32:00;;;;;;;15.75;8.43;;;;;;;;;;12842475;19;20338;-69
2023/01/23 10:37:20;;;;;;;26.55;10.85;;;;;;;;;;12817601;19;20434;-69
2023/01/23 10:41:45;;;;;;;21.50;9.15;;;;;;;;;;12725021;19;20464;-69
2023/01/23 10:46:21;;;;;;;23.05;9.77;;;;;;;;;;12834069;19;20493;-70
2023/01/23 10:50:39;;;;;;;15.10;8.15;;;;;;;;;;12834946;19;20501;-70
2023/01/23 10:54:57;;;;;;;;;;;;;;;;;;12836269;19;20074;-69
2023/01/23 10:59:22;;;;;;;14.48;7.68;;;;;;;;;;12832478;19;19915;-69
2023/01/23 11:03:44;;;;;;;11.80;6.50;;;;;;;;;;12834740;19;20527;-69
2023/01/23 11:08:02;;;;;;;11.73;5.57;;;;;;;;;;12833265;19;20440;-69
2023/01/23 11:12:30;;;;;;;10.38;5.82;;;;;;;;;;12834487;19;20319;-69
2023/01/23 11:17:12;;;;;;;15.65;9.05;;;;;;;;;;12836239;19;20033;-68
2023/01/23 11:21:37;;;;;;;17.15;10.13;;;;;;;;;;12840907;19;20433;-69
2023/01/23 11:25:55;;;;;;;11.18;6.68;;;;;;;;;;12841041;19;20493;-69
2023/01/23 11:30:34;;;;;;;11.40;7.85;;;;;;;;;;12839264;19;20461;-69
2023/01/23 11:35:13;;;;;;;33.45;14.35;;;;;;;;;;12840775;19;20010;-68
2023/01/23 11:39:56;;;;;;;31.23;12.23;;;;;;;;;;12834538;19;20015;-69
2023/01/23 11:44:19;;;;;;;10.05;4.93;;;;;;;;;;12837307;19;20438;-69
2023/01/23 11:48:48;;;;;;;13.32;7.30;;;;;;;;;;12839852;19;20425;-69
2023/01/23 11:53:46;;;;;;;13.38;7.18;;;;;;;;;;12839186;19;20303;-69
2023/01/23 11:58:51;;;;;;;11.82;5.95;;;;;;;;;;12836352;19;20354;-68
2023/01/23 12:03:49;;;;;;;28.25;14.13;;;;;;;;;;12838616;19;20386;-68
2023/01/23 12:08:26;;;;;;;22.02;13.18;;;;;;;;;;12835607;19;20089;-68
2023/01/23 12:13:14;;;;;;;16.33;9.53;;;;;;;;;;12838211;19;20077;-70
2023/01/23 12:18:27;;;;;;;10.57;6.25;;;;;;;;;;12838353;19;20368;-69
2023/01/23 12:23:39;;;;;;;39.63;19.10;;;;;;;;;;12837922;19;20014;-69
2023/01/23 12:28:29;;;;;;;18.48;11.43;;;;;;;;;;12834355;19;20321;-70
2023/01/23 12:33:18;;;;;;;29.48;11.65;;;;;;;;;;12837328;19;20541;-70
2023/01/23 12:37:52;;;;;;;10.85;6.45;;;;;;;;;;12835777;19;20496;-70
2023/01/23 12:42:33;;;;;;;10.52;6.13;;;;;;;;;;12840207;19;20482;-69
2023/01/23 12:47:02;;;;;;;17.08;9.13;;;;;;;;;;12847549;19;20500;-69
2023/01/23 12:51:28;;;;;;;14.98;9.02;;;;;;;;;;12850418;19;20485;-68
2023/01/23 12:56:16;;;;;;;23.15;11.65;;;;;;;;;;12847013;19;20157;-69
2023/01/23 13:00:38;;;;;;;26.98;12.23;;;;;;;;;;12847723;19;20450;-70
2023/01/23 13:05:22;;;;;;;71.63;23.88;;;;;;;;;;12847862;19;20023;-70
2023/01/23 13:10:24;;;;;;;56.83;17.80;;;;;;;;;;12846747;19;20314;-69
2023/01/23 13:14:42;;;;;;;47.22;17.90;;;;;;;;;;12848547;19;20389;-69
2023/01/23 13:25:08;;;;;;;32.75;11.93;;;;;;;;;;12845252;19;20303;-69
2023/01/23 13:29:01;;;;;;;17.35;7.95;;;;;;;;;;12847805;19;20496;-69
2023/01/23 13:33:30;;;;;;;22.65;9.77;;;;;;;;;;12845189;19;20345;-69
2023/01/23 13:37:50;;;;;;;20.08;9.25;;;;;;;;;;12846314;19;20415;-69
2023/01/23 13:42:13;;;;;;;51.38;23.65;;;;;;;;;;12844459;19;20370;-69
2023/01/23 13:59:22;;;;;;;43.22;14.43;;;;;;;;;;12736701;19;2006378;-69
2023/01/23 14:09:24;;;;;;;46.53;18.15;;;;;;;;;;12835420;19;20086;-66
2023/01/23 14:16:08;;;;;;;29.33;13.25;;;;;;;;;;12838224;19;20023;-67
2023/01/23 14:18:59;;;;;;;37.42;13.18;;;;;;;;;;12838365;19;20003;-66
2023/01/23 14:23:38;;;;;;;54.75;18.08;;;;;;;;;;12835870;19;20456;-66
2023/01/23 14:28:04;;;;;;;47.78;16.52;;;;;;;;;;12836450;19;20382;-65
2023/01/23 14:32:23;;;;;;;34.53;17.17;;;;;;;;;;12836771;19;20423;-66
2023/01/23 14:36:50;;;;;;;14.73;9.23;;;;;;;;;;12837077;19;20482;-66
2023/01/23 14:41:07;;;;;;;44.20;19.92;;;;;;;;;;12836164;19;20015;-65
2023/01/23 14:45:29;;;;;;;19.77;11.55;;;;;;;;;;12837006;19;20497;-67
2023/01/23 14:49:49;;;;;;;26.55;15.30;;;;;;;;;;12842497;19;20437;-66
2023/01/23 14:54:17;;;;;;;23.80;13.77;;;;;;;;;;12840533;19;20363;-65
2023/01/23 14:58:40;;;;;;;46.10;20.10;;;;;;;;;;12842319;19;20440;-66
2023/01/23 15:02:58;;;;;;;60.75;31.17;;;;;;;;;;12839621;19;20375;-66
2023/01/23 15:07:16;;;;;;;46.20;19.77;;;;;;;;;;12842169;19;20363;-65
2023/01/23 15:11:34;;;;;;;21.77;12.23;;;;;;;;;;12841374;19;20379;-66
2023/01/23 15:16:00;;;;;;;28.15;13.90;;;;;;;;;;12841800;19;20354;-65
2023/01/23 15:20:37;;;;;;;31.45;14.40;;;;;;;;;;12842115;19;20385;-66
2023/01/23 15:24:55;;;;;;;33.30;15.63;;;;;;;;;;12843532;19;20010;-66
2023/01/23 15:29:19;;;;;;;25.48;14.35;;;;;;;;;;12841021;19;20241;-66
2023/01/23 15:33:39;;;;;;;29.52;16.33;;;;;;;;;;12841705;19;20367;-65
2023/01/23 15:37:58;;;;;;;22.25;12.85;;;;;;;;;;12841393;19;20152;-65
2023/01/23 15:42:16;;;;;;;22.67;12.45;;;;;;;;;;12840466;19;20370;-66
2023/01/23 15:46:33;;;;;;;30.13;16.90;;;;;;;;;;12841523;19;20355;-66
2023/01/23 15:50:53;;;;;;;24.25;15.13;;;;;;;;;;12839810;19;20421;-67
2023/01/23 15:55:12;;;;;;;24.05;12.23;;;;;;;;;;12838028;19;20472;-66
2023/01/23 15:59:32;;;;;;;16.98;10.98;;;;;;;;;;12837285;19;20501;-65
2023/01/23 16:03:50;;;;;;;19.10;12.68;;;;;;;;;;12838469;19;20145;-66
2023/01/23 16:08:19;;;;;;;23.95;14.75;;;;;;;;;;12837541;19;20383;-66
2023/01/23 16:12:37;;;;;;;17.73;13.15;;;;;;;;;;12837364;19;20360;-66
2023/01/23 16:16:55;;;;;;;15.57;10.70;;;;;;;;;;12836995;19;20021;-66
2023/01/23 16:21:29;;;;;;;15.18;10.25;;;;;;;;;;12837470;19;20073;-65
2023/01/23 16:25:47;;;;;;;16.00;11.05;;;;;;;;;;12835782;19;20356;-66
2023/01/23 16:30:19;;;;;;;15.45;9.48;;;;;;;;;;12836216;19;20383;-66
2023/01/23 16:34:37;;;;;;;14.88;7.97;;;;;;;;;;12834695;19;20356;-66
2023/01/23 16:38:55;;;;;;;12.13;8.32;;;;;;;;;;12838390;19;20393;-66
2023/01/23 16:43:13;;;;;;;15.30;9.07;;;;;;;;;;12835961;19;20098;-66
2023/01/23 16:47:30;;;;;;;12.27;7.78;;;;;;;;;;12837606;19;20385;-66
2023/01/23 16:51:58;;;;;;;18.17;8.85;;;;;;;;;;12837455;19;20473;-66
2023/01/23 16:56:29;;;;;;;13.77;8.10;;;;;;;;;;12833566;19;20511;-65
2023/01/23 17:00:48;;;;;;;13.13;7.55;;;;;;;;;;12835706;19;20084;-65
2023/01/23 17:05:07;;;;;;;20.83;12.13;;;;;;;;;;12836195;19;20021;-67
2023/01/23 17:09:25;;;;;;;16.20;10.75;;;;;;;;;;12834183;19;20018;-67
2023/01/23 17:13:43;;;;;;;14.05;8.73;;;;;;;;;;12831175;19;20439;-65
2023/01/23 17:18:01;;;;;;;24.95;13.07;;;;;;;;;;12835949;19;20343;-65
2023/01/23 17:22:29;;;;;;;12.68;8.02;;;;;;;;;;12833424;19;20048;-66
2023/01/23 17:26:47;;;;;;;10.68;6.53;;;;;;;;;;12837601;19;20368;-65
2023/01/23 17:31:05;;;;;;;17.55;9.63;;;;;;;;;;12847836;19;20363;-66
2023/01/23 17:35:30;;;;;;;20.30;11.32;;;;;;;;;;12846904;19;20572;-66
2023/01/23 17:39:48;;;;;;;15.60;8.93;;;;;;;;;;12847813;19;20339;-65
2023/01/23 17:44:06;;;;;;;24.60;10.55;;;;;;;;;;12846529;19;20365;-66
2023/01/23 17:48:30;;;;;;;20.27;8.93;;;;;;;;;;12846248;19;20007;-65
2023/01/23 17:52:48;;;;;;;13.18;7.57;;;;;;;;;;12844765;19;20478;-65
2023/01/23 17:57:06;;;;;;;14.00;7.25;;;;;;;;;;12845261;19;20512;-67
2023/01/23 18:01:24;;;;;;;17.77;8.75;;;;;;;;;;12844326;19;20015;-65
2023/01/23 18:05:42;;;;;;;12.93;7.95;;;;;;;;;;12844360;19;20018;-66
2023/01/23 18:09:59;;;;;;;16.65;8.18;;;;;;;;;;12845527;19;20366;-66
2023/01/23 18:14:51;;;;;;;13.40;7.57;;;;;;;;;;12844003;19;20465;-66
2023/01/23 18:19:19;;;;;;;17.00;9.82;;;;;;;;;;12842326;19;20018;-65
2023/01/23 18:23:37;;;;;;;28.05;16.98;;;;;;;;;;12844752;19;20018;-65
2023/01/23 18:28:03;;;;;;;20.17;11.32;;;;;;;;;;12844556;19;20762;-65
2023/01/23 18:32:56;;;;;;;16.33;8.32;;;;;;;;;;12844107;19;20375;-65
2023/01/23 18:37:47;;;;;;;18.48;10.15;;;;;;;;;;12841696;19;20500;-65
2023/01/23 18:42:14;;;;;;;15.23;8.90;;;;;;;;;;12840916;19;20370;-65
2023/01/23 18:46:32;;;;;;;;;;;;;;;;;;12844610;19;20470;-65
2023/01/23 18:51:16;;;;;;;15.90;10.15;;;;;;;;;;12843689;19;20263;-64
2023/01/23 18:55:47;;;;;;;30.40;13.93;;;;;;;;;;12842529;19;20369;-65
2023/01/23 19:00:26;;;;;;;31.92;13.02;;;;;;;;;;12839900;19;20474;-66
2023/01/23 19:05:14;;;;;;;21.25;9.70;;;;;;;;;;12841675;19;20751;-66
2023/01/23 19:09:35;;;;;;;19.20;8.98;;;;;;;;;;12841609;19;20363;-66
2023/01/23 19:14:39;;;;;;;17.85;8.05;;;;;;;;;;12841998;19;20055;-66
2023/01/23 19:19:27;;;;;;;20.48;9.82;;;;;;;;;;12840215;19;20474;-66
2023/01/23 19:23:58;;;;;;;17.15;9.07;;;;;;;;;;12842425;19;20306;-66
2023/01/23 19:28:16;;;;;;;16.88;9.55;;;;;;;;;;12840998;19;20367;-66
2023/01/23 19:32:35;;;;;;;16.65;9.27;;;;;;;;;;12841550;19;20434;-66
2023/01/23 19:36:53;;;;;;;18.77;9.68;;;;;;;;;;12841483;19;20516;-65
2023/01/23 19:41:22;;;;;;;14.77;8.30;;;;;;;;;;12840548;19;20029;-65
2023/01/23 19:45:39;;;;;;;18.23;10.15;;;;;;;;;;12839119;19;20018;-65
2023/01/23 19:49:57;;;;;;;14.57;9.18;;;;;;;;;;12839936;19;20426;-65
2023/01/23 19:54:15;;;;;;;20.95;9.30;;;;;;;;;;12812676;19;20363;-65
2023/01/23 19:58:32;;;;;;;17.92;10.10;;;;;;;;;;12838360;19;20089;-65
2023/01/23 20:02:52;;;;;;;27.88;11.48;;;;;;;;;;12839505;19;20565;-65
2023/01/23 20:07:10;;;;;;;18.27;10.93;;;;;;;;;;12838072;19;20338;-65
2023/01/23 20:11:27;;;;;;;18.80;9.90;;;;;;;;;;12838350;19;20021;-65
2023/01/23 20:15:49;;;;;;;20.02;10.32;;;;;;;;;;12838148;19;20007;-64
2023/01/23 20:20:09;;;;;;;21.10;10.45;;;;;;;;;;12837936;19;20342;-67
2023/01/23 20:24:27;;;;;;;17.60;9.98;;;;;;;;;;12838725;19;20030;-65
2023/01/23 20:28:52;;;;;;;16.60;9.80;;;;;;;;;;12837560;19;20002;-65
2023/01/23 20:33:09;;;;;;;20.25;10.07;;;;;;;;;;12834287;19;20477;-65
2023/01/23 20:37:27;;;;;;;22.27;12.82;;;;;;;;;;12836040;19;20014;-66
2023/01/23 20:41:44;;;;;;;25.13;12.40;;;;;;;;;;12835431;19;20580;-64
2023/01/23 20:46:05;;;;;;;19.80;10.80;;;;;;;;;;12836115;19;20438;-65
2023/01/23 20:50:23;;;;;;;27.25;14.23;;;;;;;;;;12834372;19;20363;-64
2023/01/23 20:54:41;;;;;;;20.90;11.93;;;;;;;;;;12836119;19;20014;-64
2023/01/23 21:03:35;;;;;;;21.98;10.05;;;;;;;;;;12842991;19;20359;-64
2023/01/23 21:07:53;;;;;;;17.40;10.45;;;;;;;;;;12848080;19;20469;-65
2023/01/23 21:12:11;;;;;;;19.13;9.77;;;;;;;;;;12845796;19;20369;-66
2023/01/23 21:16:28;;;;;;;17.92;10.35;;;;;;;;;;12846146;19;20382;-65
2023/01/23 21:20:46;;;;;;;19.63;10.23;;;;;;;;;;12847717;19;20365;-65
2023/01/23 21:25:04;;;;;;;16.47;9.07;;;;;;;;;;12847291;19;20429;-65
2023/01/23 21:29:22;;;;;;;19.42;9.35;;;;;;;;;;12845409;19;20215;-65
2023/01/23 21:33:42;;;;;;;16.30;8.03;;;;;;;;;;12845682;19;20497;-64
2023/01/23 21:38:00;;;;;;;17.35;10.43;;;;;;;;;;12847225;19;20227;-65
2023/01/23 21:42:18;;;;;;;65.00;36.70;;;;;;;;;;12845976;19;20069;-64
2023/01/23 21:46:36;;;;;;;16.75;10.00;;;;;;;;;;12846991;19;20318;-65
2023/01/23 21:51:13;;;;;;;17.83;9.60;;;;;;;;;;12845772;19;20041;-64
2023/01/23 21:55:30;;;;;;;17.40;9.25;;;;;;;;;;12846845;19;20417;-64
2023/01/23 22:04:24;;;;;;;17.65;9.70;;;;;;;;;;12844854;19;20011;-66
2023/01/23 22:08:42;;;;;;;19.38;10.30;;;;;;;;;;12842443;19;20511;-64
2023/01/23 22:13:00;;;;;;;16.98;9.30;;;;;;;;;;12844400;19;20469;-65
2023/01/23 22:17:17;;;;;;;17.17;9.80;;;;;;;;;;12846526;19;20356;-65
2023/01/23 22:21:35;;;;;;;18.50;9.23;;;;;;;;;;12843395;19;20494;-66
2023/01/23 22:25:59;;;;;;;14.70;8.73;;;;;;;;;;12844028;19;20358;-64
2023/01/23 22:30:18;;;;;;;14.30;7.75;;;;;;;;;;12840432;19;20014;-64
2023/01/23 22:34:36;;;;;;;15.68;8.90;;;;;;;;;;12841181;19;20365;-65
2023/01/23 22:38:54;;;;;;;18.17;9.45;;;;;;;;;;12843239;19;20492;-64
2023/01/23 22:43:12;;;;;;;16.95;8.68;;;;;;;;;;12842320;19;20502;-66
2023/01/23 22:47:29;;;;;;;14.95;9.23;;;;;;;;;;12843209;19;20371;-65
2023/01/23 22:51:47;;;;;;;22.85;9.40;;;;;;;;;;12843127;19;20358;-65
2023/01/23 22:56:06;;;;;;;14.70;9.18;;;;;;;;;;12841931;19;20454;-65
2023/01/23 23:00:23;;;;;;;;;;;;;;;;;;12843435;19;20481;-65
2023/01/23 23:04:41;;;;;;;15.20;8.73;;;;;;;;;;12841300;19;20231;-64
2023/01/23 23:08:58;;;;;;;18.00;9.10;;;;;;;;;;12842303;19;20354;-65
2023/01/23 23:13:16;;;;;;;20.23;10.50;;;;;;;;;;12841876;19;20460;-64
2023/01/23 23:17:33;;;;;;;17.83;10.00;;;;;;;;;;12840515;19;20319;-65
2023/01/23 23:21:51;;;;;;;18.83;9.00;;;;;;;;;;12839632;19;20468;-65
2023/01/23 23:26:10;;;;;;;20.58;10.07;;;;;;;;;;12837112;19;20442;-65
2023/01/23 23:30:28;;;;;;;18.08;9.68;;;;;;;;;;12838511;19;20060;-65
2023/01/23 23:34:45;;;;;;;19.70;9.30;;;;;;;;;;12840249;19;20489;-65
2023/01/23 23:39:03;;;;;;;20.30;10.85;;;;;;;;;;12839312;19;20801;-66
2023/01/23 23:43:21;;;;;;;20.70;9.85;;;;;;;;;;12838515;19;20493;-64
2023/01/23 23:47:38;;;;;;;19.15;10.35;;;;;;;;;;12840007;19;20465;-65
2023/01/23 23:51:56;;;;;;;17.27;9.43;;;;;;;;;;12839598;19;20485;-66
2023/01/23 23:56:24;;;;;;;16.88;8.70;;;;;;;;;;12837889;19;20434;-64
